sensor_id;sensor_type;location;lat;lon;timestamp;P1;durP1;ratioP1;P2;durP2;ratioP2
15502;SDS011;7853;52.186;5.948;2022-12-18T00:03:14;35.13;;;16.66;;
15502;SDS011;7853;52.186;5.948;2022-12-18T00:03:14;35.70;;;16.45;;
15502;SDS011;7853;52.186;5.948;2022-12-18T00:03:15;35.59;;;15.98;;
15502;SDS011;7853;52.186;5.948;2022-12-18T00:04:15;34.83;;;15.66;;
15502;SDS011;7853;52.186;5.948;2022-12-18T00:05:24;34.11;;;15.70;;
15502;SDS011;7853;52.186;5.948;2022-12-18T00:06:30;35.59;;;16.07;;
15502;SDS011;7853;52.186;5.948;2022-12-18T00:07:33;35.92;;;16.18;;
15502;SDS011;7853;52.186;5.948;2022-12-18T00:08:34;35.39;;;15.45;;
15502;SDS011;7853;52.186;5.948;2022-12-18T00:09:35;35.33;;;16.21;;
15502;SDS011;7853;52.186;5.948;2022-12-18T00:10:35;34.19;;;15.27;;
15502;SDS011;7853;52.186;5.948;2022-12-18T00:11:36;31.61;;;15.51;;
15502;SDS011;7853;52.186;5.948;2022-12-18T00:12:36;36.58;;;16.38;;
15502;SDS011;7853;52.186;5.948;2022-12-18T00:13:36;32.97;;;15.25;;
15502;SDS011;7853;52.186;5.948;2022-12-18T00:14:36;33.24;;;15.01;;
15502;SDS011;7853;52.186;5.948;2022-12-18T00:15:36;32.11;;;15.41;;
15502;SDS011;7853;52.186;5.948;2022-12-18T00:16:35;31.51;;;14.48;;
15502;SDS011;7853;52.186;5.948;2022-12-18T00:17:36;32.60;;;15.38;;
15502;SDS011;7853;52.186;5.948;2022-12-18T00:18:35;35.99;;;16.21;;
15502;SDS011;7853;52.186;5.948;2022-12-18T00:19:35;31.74;;;15.34;;
15502;SDS011;7853;52.186;5.948;2022-12-18T00:20:36;34.39;;;15.49;;
15502;SDS011;7853;52.186;5.948;2022-12-18T00:21:35;35.28;;;16.05;;
15502;SDS011;7853;52.186;5.948;2022-12-18T00:22:35;32.21;;;15.67;;
15502;SDS011;7853;52.186;5.948;2022-12-18T00:23:36;31.61;;;15.51;;
15502;SDS011;7853;52.186;5.948;2022-12-18T00:24:35;32.68;;;15.41;;
15502;SDS011;7853;52.186;5.948;2022-12-18T00:25:35;34.91;;;16.01;;
15502;SDS011;7853;52.186;5.948;2022-12-18T00:26:36;34.40;;;15.33;;
15502;SDS011;7853;52.186;5.948;2022-12-18T00:27:35;34.56;;;15.38;;
15502;SDS011;7853;52.186;5.948;2022-12-18T00:28:35;35.20;;;15.41;;
15502;SDS011;7853;52.186;5.948;2022-12-18T00:29:35;30.77;;;14.88;;
15502;SDS011;7853;52.186;5.948;2022-12-18T00:30:35;32.09;;;14.82;;
15502;SDS011;7853;52.186;5.948;2022-12-18T00:31:36;32.99;;;15.03;;
15502;SDS011;7853;52.186;5.948;2022-12-18T00:32:35;35.67;;;15.68;;
15502;SDS011;7853;52.186;5.948;2022-12-18T00:33:35;31.51;;;15.63;;
15502;SDS011;7853;52.186;5.948;2022-12-18T00:34:35;31.75;;;14.84;;
15502;SDS011;7853;52.186;5.948;2022-12-18T00:35:35;32.18;;;15.22;;
15502;SDS011;7853;52.186;5.948;2022-12-18T00:36:35;34.43;;;15.48;;
15502;SDS011;7853;52.186;5.948;2022-12-18T00:37:35;31.05;;;15.37;;
15502;SDS011;7853;52.186;5.948;2022-12-18T00:38:35;33.28;;;15.36;;
15502;SDS011;7853;52.186;5.948;2022-12-18T00:39:35;33.10;;;15.38;;
15502;SDS011;7853;52.186;5.948;2022-12-18T00:40:35;36.11;;;15.86;;
15502;SDS011;7853;52.186;5.948;2022-12-18T00:41:35;33.18;;;16.08;;
15502;SDS011;7853;52.186;5.948;2022-12-18T00:42:36;34.53;;;15.89;;
15502;SDS011;7853;52.186;5.948;2022-12-18T00:43:35;33.68;;;15.87;;
15502;SDS011;7853;52.186;5.948;2022-12-18T00:44:35;33.24;;;15.46;;
15502;SDS011;7853;52.186;5.948;2022-12-18T00:45:35;32.75;;;15.24;;
15502;SDS011;7853;52.186;5.948;2022-12-18T00:46:35;30.06;;;14.94;;
15502;SDS011;7853;52.186;5.948;2022-12-18T00:47:35;33.03;;;15.40;;
15502;SDS011;7853;52.186;5.948;2022-12-18T00:48:35;30.45;;;14.73;;
15502;SDS011;7853;52.186;5.948;2022-12-18T00:49:35;33.39;;;15.66;;
15502;SDS011;7853;52.186;5.948;2022-12-18T00:50:35;32.98;;;15.54;;
15502;SDS011;7853;52.186;5.948;2022-12-18T00:51:35;35.39;;;15.97;;
15502;SDS011;7853;52.186;5.948;2022-12-18T00:52:35;31.32;;;15.00;;
15502;SDS011;7853;52.186;5.948;2022-12-18T00:53:35;33.43;;;15.28;;
15502;SDS011;7853;52.186;5.948;2022-12-18T00:54:35;35.46;;;15.92;;
15502;SDS011;7853;52.186;5.948;2022-12-18T00:55:35;35.22;;;15.90;;
15502;SDS011;7853;52.186;5.948;2022-12-18T00:56:36;34.82;;;15.24;;
15502;SDS011;7853;52.186;5.948;2022-12-18T00:57:35;32.64;;;15.31;;
15502;SDS011;7853;52.186;5.948;2022-12-18T00:58:35;31.21;;;14.76;;
15502;SDS011;7853;52.186;5.948;2022-12-18T00:59:35;30.21;;;14.88;;
15502;SDS011;7853;52.186;5.948;2022-12-18T01:00:36;31.22;;;15.10;;
15502;SDS011;7853;52.186;5.948;2022-12-18T01:01:35;29.42;;;14.73;;
15502;SDS011;7853;52.186;5.948;2022-12-18T01:02:35;28.87;;;14.53;;
15502;SDS011;7853;52.186;5.948;2022-12-18T01:03:35;30.83;;;15.05;;
15502;SDS011;7853;52.186;5.948;2022-12-18T01:04:35;32.47;;;14.56;;
15502;SDS011;7853;52.186;5.948;2022-12-18T01:05:38;28.39;;;14.21;;
15502;SDS011;7853;52.186;5.948;2022-12-18T01:06:35;32.37;;;15.56;;
15502;SDS011;7853;52.186;5.948;2022-12-18T01:07:35;30.39;;;14.22;;
15502;SDS011;7853;52.186;5.948;2022-12-18T01:08:35;30.72;;;15.24;;
15502;SDS011;7853;52.186;5.948;2022-12-18T01:09:35;32.90;;;15.19;;
15502;SDS011;7853;52.186;5.948;2022-12-18T01:10:35;32.22;;;14.63;;
15502;SDS011;7853;52.186;5.948;2022-12-18T01:11:35;29.88;;;13.72;;
15502;SDS011;7853;52.186;5.948;2022-12-18T01:12:35;30.25;;;14.41;;
15502;SDS011;7853;52.186;5.948;2022-12-18T01:13:35;32.23;;;14.75;;
15502;SDS011;7853;52.186;5.948;2022-12-18T01:14:35;32.40;;;15.11;;
15502;SDS011;7853;52.186;5.948;2022-12-18T01:15:35;33.38;;;15.28;;
15502;SDS011;7853;52.186;5.948;2022-12-18T01:16:35;31.03;;;15.14;;
15502;SDS011;7853;52.186;5.948;2022-12-18T01:17:35;31.09;;;14.97;;
15502;SDS011;7853;52.186;5.948;2022-12-18T01:18:35;32.65;;;15.44;;
15502;SDS011;7853;52.186;5.948;2022-12-18T01:19:35;33.75;;;15.97;;
15502;SDS011;7853;52.186;5.948;2022-12-18T01:20:35;32.57;;;16.09;;
15502;SDS011;7853;52.186;5.948;2022-12-18T01:21:35;32.08;;;14.92;;
15502;SDS011;7853;52.186;5.948;2022-12-18T01:22:35;31.54;;;15.11;;
15502;SDS011;7853;52.186;5.948;2022-12-18T01:23:35;28.33;;;13.83;;
15502;SDS011;7853;52.186;5.948;2022-12-18T01:24:35;28.87;;;13.90;;
15502;SDS011;7853;52.186;5.948;2022-12-18T01:25:35;29.72;;;14.18;;
15502;SDS011;7853;52.186;5.948;2022-12-18T01:26:35;29.96;;;14.71;;
15502;SDS011;7853;52.186;5.948;2022-12-18T01:27:35;31.91;;;15.31;;
15502;SDS011;7853;52.186;5.948;2022-12-18T01:28:35;30.04;;;14.67;;
15502;SDS011;7853;52.186;5.948;2022-12-18T01:29:35;30.58;;;14.76;;
15502;SDS011;7853;52.186;5.948;2022-12-18T01:30:35;29.19;;;14.34;;
15502;SDS011;7853;52.186;5.948;2022-12-18T01:31:35;30.63;;;14.51;;
15502;SDS011;7853;52.186;5.948;2022-12-18T01:32:35;29.32;;;14.47;;
15502;SDS011;7853;52.186;5.948;2022-12-18T01:33:35;29.94;;;14.99;;
15502;SDS011;7853;52.186;5.948;2022-12-18T01:34:35;28.77;;;14.04;;
15502;SDS011;7853;52.186;5.948;2022-12-18T01:35:39;31.90;;;14.30;;
15502;SDS011;7853;52.186;5.948;2022-12-18T01:36:36;31.33;;;14.54;;
15502;SDS011;7853;52.186;5.948;2022-12-18T01:37:35;29.20;;;13.63;;
15502;SDS011;7853;52.186;5.948;2022-12-18T01:38:35;32.04;;;15.04;;
15502;SDS011;7853;52.186;5.948;2022-12-18T01:39:35;27.78;;;14.12;;
15502;SDS011;7853;52.186;5.948;2022-12-18T01:40:35;30.48;;;14.80;;
15502;SDS011;7853;52.186;5.948;2022-12-18T01:41:35;30.24;;;14.69;;
15502;SDS011;7853;52.186;5.948;2022-12-18T01:42:35;29.47;;;14.50;;
15502;SDS011;7853;52.186;5.948;2022-12-18T01:43:43;29.92;;;14.24;;
15502;SDS011;7853;52.186;5.948;2022-12-18T01:45:48;29.69;;;13.86;;
15502;SDS011;7853;52.186;5.948;2022-12-18T01:46:41;31.42;;;14.52;;
15502;SDS011;7853;52.186;5.948;2022-12-18T01:47:38;28.82;;;14.12;;
15502;SDS011;7853;52.186;5.948;2022-12-18T01:48:36;29.30;;;13.75;;
15502;SDS011;7853;52.186;5.948;2022-12-18T01:49:35;28.37;;;13.95;;
15502;SDS011;7853;52.186;5.948;2022-12-18T01:50:35;29.08;;;14.13;;
15502;SDS011;7853;52.186;5.948;2022-12-18T01:51:34;29.69;;;14.51;;
15502;SDS011;7853;52.186;5.948;2022-12-18T01:52:34;28.93;;;14.36;;
15502;SDS011;7853;52.186;5.948;2022-12-18T01:53:34;29.49;;;14.17;;
15502;SDS011;7853;52.186;5.948;2022-12-18T01:54:34;29.90;;;14.30;;
15502;SDS011;7853;52.186;5.948;2022-12-18T01:55:35;27.81;;;13.83;;
15502;SDS011;7853;52.186;5.948;2022-12-18T01:56:34;26.78;;;13.32;;
15502;SDS011;7853;52.186;5.948;2022-12-18T01:57:34;27.19;;;13.48;;
15502;SDS011;7853;52.186;5.948;2022-12-18T01:58:35;27.55;;;14.25;;
15502;SDS011;7853;52.186;5.948;2022-12-18T01:59:34;29.06;;;14.23;;
15502;SDS011;7853;52.186;5.948;2022-12-18T02:00:34;28.11;;;14.10;;
15502;SDS011;7853;52.186;5.948;2022-12-18T02:01:34;27.46;;;13.46;;
15502;SDS011;7853;52.186;5.948;2022-12-18T02:02:34;27.70;;;14.00;;
15502;SDS011;7853;52.186;5.948;2022-12-18T02:03:34;27.01;;;14.01;;
15502;SDS011;7853;52.186;5.948;2022-12-18T02:04:34;28.37;;;14.05;;
15502;SDS011;7853;52.186;5.948;2022-12-18T02:05:37;28.04;;;14.05;;
15502;SDS011;7853;52.186;5.948;2022-12-18T02:06:36;27.31;;;13.72;;
15502;SDS011;7853;52.186;5.948;2022-12-18T02:07:37;26.00;;;13.75;;
15502;SDS011;7853;52.186;5.948;2022-12-18T02:08:36;27.80;;;13.54;;
15502;SDS011;7853;52.186;5.948;2022-12-18T02:09:35;28.17;;;13.56;;
15502;SDS011;7853;52.186;5.948;2022-12-18T02:10:35;27.78;;;13.51;;
15502;SDS011;7853;52.186;5.948;2022-12-18T02:11:39;29.04;;;13.29;;
15502;SDS011;7853;52.186;5.948;2022-12-18T02:19:47;28.52;;;14.51;;
15502;SDS011;7853;52.186;5.948;2022-12-18T02:20:40;27.08;;;13.78;;
15502;SDS011;7853;52.186;5.948;2022-12-18T02:21:40;26.90;;;13.33;;
15502;SDS011;7853;52.186;5.948;2022-12-18T02:22:37;27.94;;;13.63;;
15502;SDS011;7853;52.186;5.948;2022-12-18T02:23:39;28.91;;;13.98;;
15502;SDS011;7853;52.186;5.948;2022-12-18T02:24:35;25.30;;;13.30;;
15502;SDS011;7853;52.186;5.948;2022-12-18T02:25:39;26.17;;;12.85;;
15502;SDS011;7853;52.186;5.948;2022-12-18T02:26:34;26.44;;;13.62;;
15502;SDS011;7853;52.186;5.948;2022-12-18T02:27:34;26.57;;;13.70;;
15502;SDS011;7853;52.186;5.948;2022-12-18T02:28:35;27.40;;;13.53;;
15502;SDS011;7853;52.186;5.948;2022-12-18T02:29:35;27.06;;;13.28;;
15502;SDS011;7853;52.186;5.948;2022-12-18T02:30:34;26.74;;;13.42;;
15502;SDS011;7853;52.186;5.948;2022-12-18T02:31:35;26.48;;;13.21;;
15502;SDS011;7853;52.186;5.948;2022-12-18T02:32:35;27.09;;;13.37;;
15502;SDS011;7853;52.186;5.948;2022-12-18T02:33:34;26.84;;;13.08;;
15502;SDS011;7853;52.186;5.948;2022-12-18T02:34:36;26.68;;;13.79;;
15502;SDS011;7853;52.186;5.948;2022-12-18T02:35:34;24.84;;;13.46;;
15502;SDS011;7853;52.186;5.948;2022-12-18T02:36:35;27.40;;;13.54;;
15502;SDS011;7853;52.186;5.948;2022-12-18T02:37:35;25.18;;;13.23;;
15502;SDS011;7853;52.186;5.948;2022-12-18T02:38:34;27.45;;;13.82;;
15502;SDS011;7853;52.186;5.948;2022-12-18T02:39:35;27.94;;;13.29;;
15502;SDS011;7853;52.186;5.948;2022-12-18T02:40:34;27.71;;;13.29;;
15502;SDS011;7853;52.186;5.948;2022-12-18T02:41:34;24.73;;;13.08;;
15502;SDS011;7853;52.186;5.948;2022-12-18T02:42:34;27.00;;;13.43;;
15502;SDS011;7853;52.186;5.948;2022-12-18T02:43:34;26.56;;;13.05;;
15502;SDS011;7853;52.186;5.948;2022-12-18T02:44:34;27.30;;;13.95;;
15502;SDS011;7853;52.186;5.948;2022-12-18T02:45:34;30.51;;;13.89;;
15502;SDS011;7853;52.186;5.948;2022-12-18T02:46:35;27.75;;;13.42;;
15502;SDS011;7853;52.186;5.948;2022-12-18T02:47:36;28.19;;;13.47;;
15502;SDS011;7853;52.186;5.948;2022-12-18T02:48:34;27.20;;;13.16;;
15502;SDS011;7853;52.186;5.948;2022-12-18T02:49:35;28.16;;;13.77;;
15502;SDS011;7853;52.186;5.948;2022-12-18T02:50:36;27.85;;;13.08;;
15502;SDS011;7853;52.186;5.948;2022-12-18T02:51:37;26.10;;;13.35;;
15502;SDS011;7853;52.186;5.948;2022-12-18T02:52:35;27.91;;;13.79;;
15502;SDS011;7853;52.186;5.948;2022-12-18T02:53:36;26.32;;;13.51;;
15502;SDS011;7853;52.186;5.948;2022-12-18T02:54:38;26.72;;;13.04;;
15502;SDS011;7853;52.186;5.948;2022-12-18T02:55:39;26.26;;;12.83;;
15502;SDS011;7853;52.186;5.948;2022-12-18T02:56:35;26.78;;;12.85;;
15502;SDS011;7853;52.186;5.948;2022-12-18T02:57:35;27.08;;;13.23;;
15502;SDS011;7853;52.186;5.948;2022-12-18T02:58:36;25.13;;;13.26;;
15502;SDS011;7853;52.186;5.948;2022-12-18T02:59:36;26.69;;;13.72;;
15502;SDS011;7853;52.186;5.948;2022-12-18T03:00:35;26.04;;;12.77;;
15502;SDS011;7853;52.186;5.948;2022-12-18T03:01:35;27.34;;;13.62;;
15502;SDS011;7853;52.186;5.948;2022-12-18T03:02:36;26.91;;;13.26;;
15502;SDS011;7853;52.186;5.948;2022-12-18T03:03:36;26.83;;;13.01;;
15502;SDS011;7853;52.186;5.948;2022-12-18T03:04:38;26.65;;;12.95;;
15502;SDS011;7853;52.186;5.948;2022-12-18T03:05:36;26.43;;;13.43;;
15502;SDS011;7853;52.186;5.948;2022-12-18T03:06:35;28.75;;;13.43;;
15502;SDS011;7853;52.186;5.948;2022-12-18T03:07:36;28.93;;;13.30;;
15502;SDS011;7853;52.186;5.948;2022-12-18T03:08:36;26.43;;;12.87;;
15502;SDS011;7853;52.186;5.948;2022-12-18T03:09:35;25.30;;;12.94;;
15502;SDS011;7853;52.186;5.948;2022-12-18T03:10:36;25.06;;;12.70;;
15502;SDS011;7853;52.186;5.948;2022-12-18T03:11:36;24.83;;;12.49;;
15502;SDS011;7853;52.186;5.948;2022-12-18T03:12:35;24.22;;;12.74;;
15502;SDS011;7853;52.186;5.948;2022-12-18T03:13:35;25.60;;;13.15;;
15502;SDS011;7853;52.186;5.948;2022-12-18T03:14:34;27.34;;;13.11;;
15502;SDS011;7853;52.186;5.948;2022-12-18T03:15:35;26.35;;;12.81;;
15502;SDS011;7853;52.186;5.948;2022-12-18T03:16:34;28.23;;;13.61;;
15502;SDS011;7853;52.186;5.948;2022-12-18T03:17:34;26.95;;;13.34;;
15502;SDS011;7853;52.186;5.948;2022-12-18T03:18:35;26.13;;;12.62;;
15502;SDS011;7853;52.186;5.948;2022-12-18T03:19:34;27.01;;;12.72;;
15502;SDS011;7853;52.186;5.948;2022-12-18T03:20:35;24.86;;;12.59;;
15502;SDS011;7853;52.186;5.948;2022-12-18T03:21:35;26.63;;;13.17;;
15502;SDS011;7853;52.186;5.948;2022-12-18T03:22:35;25.87;;;12.53;;
15502;SDS011;7853;52.186;5.948;2022-12-18T03:23:36;23.15;;;12.42;;
15502;SDS011;7853;52.186;5.948;2022-12-18T03:24:35;24.82;;;12.36;;
15502;SDS011;7853;52.186;5.948;2022-12-18T03:25:35;23.99;;;12.80;;
15502;SDS011;7853;52.186;5.948;2022-12-18T03:26:35;26.15;;;12.59;;
15502;SDS011;7853;52.186;5.948;2022-12-18T03:27:35;25.16;;;12.57;;
15502;SDS011;7853;52.186;5.948;2022-12-18T03:28:35;24.62;;;12.32;;
15502;SDS011;7853;52.186;5.948;2022-12-18T03:29:35;24.68;;;12.77;;
15502;SDS011;7853;52.186;5.948;2022-12-18T03:30:35;21.02;;;11.37;;
15502;SDS011;7853;52.186;5.948;2022-12-18T03:31:36;24.36;;;12.24;;
15502;SDS011;7853;52.186;5.948;2022-12-18T03:32:38;24.24;;;11.97;;
15502;SDS011;7853;52.186;5.948;2022-12-18T03:33:36;23.77;;;11.91;;
15502;SDS011;7853;52.186;5.948;2022-12-18T03:34:35;22.72;;;11.43;;
15502;SDS011;7853;52.186;5.948;2022-12-18T03:35:36;23.22;;;11.90;;
15502;SDS011;7853;52.186;5.948;2022-12-18T03:36:35;22.24;;;11.73;;
15502;SDS011;7853;52.186;5.948;2022-12-18T03:37:35;23.41;;;12.51;;
15502;SDS011;7853;52.186;5.948;2022-12-18T03:38:35;23.63;;;11.96;;
15502;SDS011;7853;52.186;5.948;2022-12-18T03:39:35;21.11;;;11.40;;
15502;SDS011;7853;52.186;5.948;2022-12-18T03:40:35;22.86;;;12.18;;
15502;SDS011;7853;52.186;5.948;2022-12-18T03:41:37;22.04;;;11.43;;
15502;SDS011;7853;52.186;5.948;2022-12-18T03:42:37;23.36;;;11.85;;
15502;SDS011;7853;52.186;5.948;2022-12-18T03:43:36;23.87;;;11.65;;
15502;SDS011;7853;52.186;5.948;2022-12-18T03:44:35;24.11;;;11.82;;
15502;SDS011;7853;52.186;5.948;2022-12-18T03:45:36;21.69;;;11.41;;
15502;SDS011;7853;52.186;5.948;2022-12-18T03:46:37;20.11;;;11.20;;
15502;SDS011;7853;52.186;5.948;2022-12-18T03:47:36;24.88;;;11.75;;
15502;SDS011;7853;52.186;5.948;2022-12-18T03:48:36;24.63;;;11.86;;
15502;SDS011;7853;52.186;5.948;2022-12-18T03:49:35;24.03;;;11.81;;
15502;SDS011;7853;52.186;5.948;2022-12-18T03:50:37;19.90;;;11.02;;
15502;SDS011;7853;52.186;5.948;2022-12-18T03:51:36;22.18;;;11.52;;
15502;SDS011;7853;52.186;5.948;2022-12-18T03:52:36;21.90;;;12.00;;
15502;SDS011;7853;52.186;5.948;2022-12-18T03:53:36;21.66;;;11.79;;
15502;SDS011;7853;52.186;5.948;2022-12-18T03:54:35;22.88;;;11.49;;
15502;SDS011;7853;52.186;5.948;2022-12-18T03:55:35;23.26;;;11.75;;
15502;SDS011;7853;52.186;5.948;2022-12-18T03:56:36;22.64;;;11.65;;
15502;SDS011;7853;52.186;5.948;2022-12-18T03:57:35;22.58;;;11.97;;
15502;SDS011;7853;52.186;5.948;2022-12-18T03:58:35;21.63;;;11.31;;
15502;SDS011;7853;52.186;5.948;2022-12-18T03:59:35;22.66;;;11.51;;
15502;SDS011;7853;52.186;5.948;2022-12-18T04:00:36;22.03;;;11.39;;
15502;SDS011;7853;52.186;5.948;2022-12-18T04:01:36;22.70;;;11.53;;
15502;SDS011;7853;52.186;5.948;2022-12-18T04:02:35;22.51;;;11.21;;
15502;SDS011;7853;52.186;5.948;2022-12-18T04:03:35;22.21;;;11.54;;
15502;SDS011;7853;52.186;5.948;2022-12-18T04:04:35;19.50;;;10.84;;
15502;SDS011;7853;52.186;5.948;2022-12-18T04:05:35;21.02;;;11.54;;
15502;SDS011;7853;52.186;5.948;2022-12-18T04:06:35;21.04;;;11.47;;
15502;SDS011;7853;52.186;5.948;2022-12-18T04:07:35;21.48;;;11.03;;
15502;SDS011;7853;52.186;5.948;2022-12-18T04:08:35;20.82;;;11.58;;
15502;SDS011;7853;52.186;5.948;2022-12-18T04:09:35;21.49;;;11.68;;
15502;SDS011;7853;52.186;5.948;2022-12-18T04:10:35;21.08;;;11.67;;
15502;SDS011;7853;52.186;5.948;2022-12-18T04:11:35;22.31;;;11.87;;
15502;SDS011;7853;52.186;5.948;2022-12-18T04:12:35;21.87;;;11.49;;
15502;SDS011;7853;52.186;5.948;2022-12-18T04:13:35;20.42;;;11.43;;
15502;SDS011;7853;52.186;5.948;2022-12-18T04:14:35;22.77;;;11.64;;
15502;SDS011;7853;52.186;5.948;2022-12-18T04:15:35;20.16;;;10.81;;
15502;SDS011;7853;52.186;5.948;2022-12-18T04:16:35;21.12;;;10.93;;
15502;SDS011;7853;52.186;5.948;2022-12-18T04:17:35;20.77;;;10.89;;
15502;SDS011;7853;52.186;5.948;2022-12-18T04:18:35;20.13;;;11.03;;
15502;SDS011;7853;52.186;5.948;2022-12-18T04:19:35;20.20;;;11.04;;
15502;SDS011;7853;52.186;5.948;2022-12-18T04:20:35;20.46;;;11.16;;
15502;SDS011;7853;52.186;5.948;2022-12-18T04:21:35;20.61;;;11.32;;
15502;SDS011;7853;52.186;5.948;2022-12-18T04:22:35;21.43;;;11.34;;
15502;SDS011;7853;52.186;5.948;2022-12-18T04:23:35;21.76;;;11.58;;
15502;SDS011;7853;52.186;5.948;2022-12-18T04:24:35;21.19;;;11.08;;
15502;SDS011;7853;52.186;5.948;2022-12-18T04:25:35;20.28;;;10.92;;
15502;SDS011;7853;52.186;5.948;2022-12-18T04:26:35;19.26;;;10.86;;
15502;SDS011;7853;52.186;5.948;2022-12-18T04:27:35;21.04;;;11.33;;
15502;SDS011;7853;52.186;5.948;2022-12-18T04:28:35;21.19;;;10.97;;
15502;SDS011;7853;52.186;5.948;2022-12-18T04:29:35;21.03;;;10.81;;
15502;SDS011;7853;52.186;5.948;2022-12-18T04:30:35;19.79;;;10.70;;
15502;SDS011;7853;52.186;5.948;2022-12-18T04:31:35;20.50;;;11.11;;
15502;SDS011;7853;52.186;5.948;2022-12-18T04:32:35;21.49;;;10.91;;
15502;SDS011;7853;52.186;5.948;2022-12-18T04:33:35;20.88;;;10.79;;
15502;SDS011;7853;52.186;5.948;2022-12-18T04:34:35;20.02;;;10.60;;
15502;SDS011;7853;52.186;5.948;2022-12-18T04:35:35;19.73;;;11.22;;
15502;SDS011;7853;52.186;5.948;2022-12-18T04:36:35;19.03;;;11.29;;
15502;SDS011;7853;52.186;5.948;2022-12-18T04:37:35;18.89;;;10.37;;
15502;SDS011;7853;52.186;5.948;2022-12-18T04:38:35;19.36;;;10.76;;
15502;SDS011;7853;52.186;5.948;2022-12-18T04:39:35;19.08;;;10.23;;
15502;SDS011;7853;52.186;5.948;2022-12-18T04:40:35;20.26;;;10.99;;
15502;SDS011;7853;52.186;5.948;2022-12-18T04:41:35;20.07;;;10.69;;
15502;SDS011;7853;52.186;5.948;2022-12-18T04:42:35;19.30;;;10.67;;
15502;SDS011;7853;52.186;5.948;2022-12-18T04:43:35;19.32;;;10.08;;
15502;SDS011;7853;52.186;5.948;2022-12-18T04:44:35;18.41;;;10.21;;
15502;SDS011;7853;52.186;5.948;2022-12-18T04:45:35;18.85;;;10.23;;
15502;SDS011;7853;52.186;5.948;2022-12-18T04:46:35;19.12;;;10.29;;
15502;SDS011;7853;52.186;5.948;2022-12-18T04:47:35;18.60;;;10.36;;
15502;SDS011;7853;52.186;5.948;2022-12-18T04:48:35;20.86;;;10.49;;
15502;SDS011;7853;52.186;5.948;2022-12-18T04:49:35;19.79;;;10.65;;
15502;SDS011;7853;52.186;5.948;2022-12-18T04:50:35;19.64;;;10.71;;
15502;SDS011;7853;52.186;5.948;2022-12-18T04:51:35;20.21;;;10.78;;
15502;SDS011;7853;52.186;5.948;2022-12-18T04:52:35;19.27;;;10.11;;
15502;SDS011;7853;52.186;5.948;2022-12-18T04:53:35;17.84;;;9.91;;
15502;SDS011;7853;52.186;5.948;2022-12-18T04:54:35;17.20;;;9.58;;
15502;SDS011;7853;52.186;5.948;2022-12-18T04:55:35;18.40;;;9.81;;
15502;SDS011;7853;52.186;5.948;2022-12-18T04:56:35;19.56;;;10.41;;
15502;SDS011;7853;52.186;5.948;2022-12-18T04:57:35;19.71;;;10.63;;
15502;SDS011;7853;52.186;5.948;2022-12-18T04:58:35;19.13;;;10.29;;
15502;SDS011;7853;52.186;5.948;2022-12-18T04:59:35;20.51;;;10.64;;
15502;SDS011;7853;52.186;5.948;2022-12-18T05:00:35;18.45;;;10.10;;
15502;SDS011;7853;52.186;5.948;2022-12-18T05:01:35;19.53;;;10.76;;
15502;SDS011;7853;52.186;5.948;2022-12-18T05:02:35;19.74;;;10.31;;
15502;SDS011;7853;52.186;5.948;2022-12-18T05:03:35;19.86;;;10.79;;
15502;SDS011;7853;52.186;5.948;2022-12-18T05:04:35;18.46;;;10.10;;
15502;SDS011;7853;52.186;5.948;2022-12-18T05:05:35;19.76;;;10.38;;
15502;SDS011;7853;52.186;5.948;2022-12-18T05:06:35;19.51;;;10.14;;
15502;SDS011;7853;52.186;5.948;2022-12-18T05:07:35;17.98;;;10.06;;
15502;SDS011;7853;52.186;5.948;2022-12-18T05:08:35;20.83;;;10.49;;
15502;SDS011;7853;52.186;5.948;2022-12-18T05:09:35;18.68;;;10.42;;
15502;SDS011;7853;52.186;5.948;2022-12-18T05:10:35;18.31;;;10.77;;
15502;SDS011;7853;52.186;5.948;2022-12-18T05:11:35;19.94;;;10.47;;
15502;SDS011;7853;52.186;5.948;2022-12-18T05:12:35;18.59;;;10.11;;
15502;SDS011;7853;52.186;5.948;2022-12-18T05:13:35;19.62;;;10.72;;
15502;SDS011;7853;52.186;5.948;2022-12-18T05:14:35;19.21;;;10.27;;
15502;SDS011;7853;52.186;5.948;2022-12-18T05:15:35;16.48;;;9.73;;
15502;SDS011;7853;52.186;5.948;2022-12-18T05:16:35;18.00;;;9.66;;
15502;SDS011;7853;52.186;5.948;2022-12-18T05:17:35;18.16;;;9.94;;
15502;SDS011;7853;52.186;5.948;2022-12-18T05:18:35;20.72;;;10.11;;
15502;SDS011;7853;52.186;5.948;2022-12-18T05:19:38;19.14;;;9.90;;
15502;SDS011;7853;52.186;5.948;2022-12-18T05:20:35;20.85;;;10.32;;
15502;SDS011;7853;52.186;5.948;2022-12-18T05:21:35;18.08;;;9.58;;
15502;SDS011;7853;52.186;5.948;2022-12-18T05:22:35;17.71;;;9.45;;
15502;SDS011;7853;52.186;5.948;2022-12-18T05:23:35;19.41;;;10.10;;
15502;SDS011;7853;52.186;5.948;2022-12-18T05:24:35;17.78;;;9.74;;
15502;SDS011;7853;52.186;5.948;2022-12-18T05:25:35;17.84;;;9.45;;
15502;SDS011;7853;52.186;5.948;2022-12-18T05:26:35;17.23;;;9.44;;
15502;SDS011;7853;52.186;5.948;2022-12-18T05:27:35;18.17;;;9.81;;
15502;SDS011;7853;52.186;5.948;2022-12-18T05:28:35;16.41;;;9.86;;
15502;SDS011;7853;52.186;5.948;2022-12-18T05:29:35;16.25;;;9.90;;
15502;SDS011;7853;52.186;5.948;2022-12-18T05:30:35;18.35;;;9.63;;
15502;SDS011;7853;52.186;5.948;2022-12-18T05:31:35;18.33;;;9.90;;
15502;SDS011;7853;52.186;5.948;2022-12-18T05:32:35;17.82;;;9.79;;
15502;SDS011;7853;52.186;5.948;2022-12-18T05:33:35;19.81;;;10.14;;
15502;SDS011;7853;52.186;5.948;2022-12-18T05:34:35;18.03;;;9.63;;
15502;SDS011;7853;52.186;5.948;2022-12-18T05:35:35;17.62;;;9.70;;
15502;SDS011;7853;52.186;5.948;2022-12-18T05:36:35;18.97;;;9.94;;
15502;SDS011;7853;52.186;5.948;2022-12-18T05:37:35;17.49;;;10.07;;
15502;SDS011;7853;52.186;5.948;2022-12-18T05:38:35;18.41;;;9.79;;
15502;SDS011;7853;52.186;5.948;2022-12-18T05:39:35;18.08;;;9.80;;
15502;SDS011;7853;52.186;5.948;2022-12-18T05:40:35;17.97;;;9.62;;
15502;SDS011;7853;52.186;5.948;2022-12-18T05:41:35;17.91;;;9.86;;
15502;SDS011;7853;52.186;5.948;2022-12-18T05:42:35;19.72;;;10.03;;
15502;SDS011;7853;52.186;5.948;2022-12-18T05:43:35;18.93;;;10.28;;
15502;SDS011;7853;52.186;5.948;2022-12-18T05:44:35;19.31;;;10.55;;
15502;SDS011;7853;52.186;5.948;2022-12-18T05:45:36;17.46;;;9.66;;
15502;SDS011;7853;52.186;5.948;2022-12-18T05:46:35;19.67;;;10.33;;
15502;SDS011;7853;52.186;5.948;2022-12-18T05:47:35;20.34;;;10.05;;
15502;SDS011;7853;52.186;5.948;2022-12-18T05:48:35;19.36;;;10.20;;
15502;SDS011;7853;52.186;5.948;2022-12-18T05:49:35;18.48;;;10.12;;
15502;SDS011;7853;52.186;5.948;2022-12-18T05:50:35;19.48;;;10.07;;
15502;SDS011;7853;52.186;5.948;2022-12-18T05:51:35;18.77;;;9.97;;
15502;SDS011;7853;52.186;5.948;2022-12-18T05:52:35;18.22;;;9.68;;
15502;SDS011;7853;52.186;5.948;2022-12-18T05:53:35;18.43;;;10.26;;
15502;SDS011;7853;52.186;5.948;2022-12-18T05:54:35;18.11;;;9.55;;
15502;SDS011;7853;52.186;5.948;2022-12-18T05:55:35;19.10;;;10.17;;
15502;SDS011;7853;52.186;5.948;2022-12-18T05:56:35;18.56;;;9.93;;
15502;SDS011;7853;52.186;5.948;2022-12-18T05:57:35;16.88;;;9.95;;
15502;SDS011;7853;52.186;5.948;2022-12-18T05:58:35;17.69;;;10.01;;
15502;SDS011;7853;52.186;5.948;2022-12-18T05:59:35;19.08;;;10.26;;
15502;SDS011;7853;52.186;5.948;2022-12-18T06:00:35;19.57;;;10.06;;
15502;SDS011;7853;52.186;5.948;2022-12-18T06:01:35;17.52;;;9.64;;
15502;SDS011;7853;52.186;5.948;2022-12-18T06:02:35;19.57;;;10.30;;
15502;SDS011;7853;52.186;5.948;2022-12-18T06:03:35;19.31;;;9.95;;
15502;SDS011;7853;52.186;5.948;2022-12-18T06:04:35;18.32;;;9.76;;
15502;SDS011;7853;52.186;5.948;2022-12-18T06:05:35;18.63;;;10.06;;